Time;durP1;ratioP1;P1;durP2;ratioP2;P2;SDS_P1;SDS_P2;PMS_P1;PMS_P2;Temp;Humidity;BMP_temperature;BMP_pressure;BME280_temperature;BME280_humidity;BME280_pressure;Samples;Min_cycle;Max_cycle;Signal;HPM_P1;HPM_P2
2023/09/26 00:01:04;;;;;;;0.00;0.00;;;;;;;14.52;100.00;102176.75;5105069;28;20044;-44
2023/09/26 00:03:30;;;;;;;0.00;0.00;;;;;;;14.47;100.00;102167.25;5094285;28;20792;-46
2023/09/26 00:05:56;;;;;;;0.00;0.00;;;;;;;14.47;100.00;102177.25;5101175;28;20035;-44
2023/09/26 00:08:21;;;;;;;0.00;0.00;;;;;;;14.49;100.00;102186.91;5090460;28;20026;-45
2023/09/26 00:10:47;;;;;;;0.00;0.00;;;;;;;14.51;100.00;102184.03;5106722;28;20444;-43
2023/09/26 00:13:13;;;;;;;0.00;0.00;;;;;;;14.53;100.00;102192.00;5099192;28;20385;-44
2023/09/26 00:15:38;;;;;;;0.00;0.00;;;;;;;14.50;100.00;102194.00;5102695;28;20122;-48
2023/09/26 00:18:04;;;;;;;0.00;0.00;;;;;;;14.46;100.00;102202.69;5100788;28;20067;-46
2023/09/26 00:20:30;;;;;;;0.00;0.00;;;;;;;14.60;100.00;102193.84;5111064;28;20333;-43
2023/09/26 00:22:56;;;;;;;0.00;0.00;;;;;;;14.56;100.00;102188.94;5094488;28;20036;-44
2023/09/26 00:25:23;;;;;;;0.00;0.00;;;;;;;14.55;100.00;102188.09;5100941;28;20015;-43
2023/09/26 00:27:48;;;;;;;0.00;0.00;;;;;;;14.56;100.00;102189.81;5109137;27;20032;-46
2023/09/26 00:30:14;;;;;;;0.00;0.00;;;;;;;14.55;100.00;102190.81;5097684;28;20232;-43
2023/09/26 00:32:40;;;;;;;0.00;0.00;;;;;;;14.55;100.00;102193.50;5096902;28;20016;-41
2023/09/26 00:35:08;;;;;;;0.00;0.00;;;;;;;14.54;100.00;102193.72;5104822;28;20050;-44
2023/09/26 00:37:34;;;;;;;0.00;0.00;;;;;;;14.52;100.00;102188.41;5097349;28;20054;-44
2023/09/26 00:39:59;;;;;;;0.00;0.00;;;;;;;14.55;100.00;102190.81;5097366;28;20466;-45
2023/09/26 00:42:26;;;;;;;0.00;0.00;;;;;;;14.56;100.00;102189.81;5097341;28;20039;-43
2023/09/26 00:44:52;;;;;;;0.00;0.00;;;;;;;14.53;100.00;102184.72;5097277;28;20020;-44
2023/09/26 00:47:17;;;;;;;0.00;0.00;;;;;;;14.49;100.00;102181.47;5116314;28;20050;-45
2023/09/26 00:49:43;;;;;;;0.00;0.00;;;;;;;14.40;100.00;102187.97;5109117;27;20311;-45
2023/09/26 00:52:08;;;;;;;0.00;0.00;;;;;;;14.32;100.00;102189.84;5090770;28;20024;-45
2023/09/26 00:54:35;;;;;;;0.00;0.00;;;;;;;14.31;100.00;102180.03;5102961;28;20107;-47
2023/09/26 00:57:00;;;;;;;0.00;0.00;;;;;;;14.29;100.00;102185.59;5097459;28;20046;-45
2023/09/26 00:59:26;;;;;;;0.00;0.00;;;;;;;14.27;100.00;102193.94;5098916;28;20028;-46
2023/09/26 01:01:52;;;;;;;0.00;0.00;;;;;;;14.28;100.00;102190.19;5114401;28;20031;-45
2023/09/26 01:04:18;;;;;;;0.00;0.00;;;;;;;14.27;100.00;102199.34;5113134;28;20096;-47
2023/09/26 01:06:44;;;;;;;0.00;0.00;;;;;;;14.27;100.00;102191.22;5102147;27;20099;-44
2023/09/26 01:09:11;;;;;;;0.00;0.00;;;;;;;14.23;100.00;102187.16;5094807;28;20464;-46
2023/09/26 01:11:37;;;;;;;0.00;0.00;;;;;;;14.25;100.00;102195.13;5111746;28;20036;-43
2023/09/26 01:14:03;;;;;;;0.00;0.00;;;;;;;14.26;100.00;102185.97;5116786;27;20452;-43
2023/09/26 01:16:28;;;;;;;0.00;0.00;;;;;;;14.25;100.00;102179.72;5105669;28;20091;-41
2023/09/26 01:18:54;;;;;;;0.00;0.00;;;;;;;14.22;100.00;102195.47;5096763;28;20100;-41
2023/09/26 01:21:20;;;;;;;0.00;0.00;;;;;;;14.18;100.00;102175.16;5110984;28;20436;-43
2023/09/26 01:23:55;;;;;;;0.00;0.00;;;;;;;14.18;100.00;102178.69;5105067;28;20089;-44
2023/09/26 01:26:20;;;;;;;0.00;0.00;;;;;;;14.15;100.00;102183.63;5111134;27;20032;-43
2023/09/26 01:28:45;;;;;;;0.00;0.00;;;;;;;14.16;100.00;102178.03;5103637;27;20066;-45
2023/09/26 01:31:11;;;;;;;0.00;0.00;;;;;;;14.17;100.00;102165.34;5096887;28;20024;-45
2023/09/26 01:33:36;;;;;;;0.00;0.00;;;;;;;14.13;100.00;102164.84;5099921;28;20412;-49
2023/09/26 01:36:01;;;;;;;0.00;0.00;;;;;;;14.11;100.00;102166.88;5104200;28;20063;-42
2023/09/26 01:38:27;;;;;;;0.00;0.00;;;;;;;14.09;100.00;102162.66;5104796;28;20032;-45
2023/09/26 01:40:52;;;;;;;0.00;0.00;;;;;;;14.06;100.00;102153.03;5094395;28;20425;-45
2023/09/26 01:43:18;;;;;;;0.00;0.00;;;;;;;14.05;100.00;102156.75;5095355;28;20032;-43
2023/09/26 01:45:43;;;;;;;0.00;0.00;;;;;;;14.03;100.00;102153.34;5109443;28;20069;-42
2023/09/26 01:48:09;;;;;;;0.00;0.00;;;;;;;13.97;100.00;102149.47;5112086;28;20112;-43
2023/09/26 01:50:35;;;;;;;0.00;0.00;;;;;;;13.97;100.00;102143.22;5098586;28;20028;-47
2023/09/26 01:53:01;;;;;;;0.00;0.00;;;;;;;13.96;100.00;102141.56;5094122;28;20052;-42
2023/09/26 01:55:26;;;;;;;0.00;0.00;;;;;;;13.91;100.00;102133.09;5098986;28;20028;-44
2023/09/26 01:57:51;;;;;;;0.00;0.00;;;;;;;13.92;100.00;102135.63;5108988;28;20107;-43
2023/09/26 02:00:19;;;;;;;0.00;0.00;;;;;;;13.90;100.00;102143.09;5102409;28;20543;-45
2023/09/26 02:02:47;;;;;;;0.00;0.00;;;;;;;13.86;100.00;102135.47;5105614;27;20369;-45
2023/09/26 02:05:17;;;;;;;0.00;0.00;;;;;;;13.82;100.00;102146.66;5111256;28;20028;-43
2023/09/26 02:07:46;;;;;;;0.00;0.00;;;;;;;13.78;100.00;102131.75;5112273;28;20046;-42
2023/09/26 02:10:11;;;;;;;0.00;0.00;;;;;;;13.78;100.00;102130.91;5106636;28;20031;-45
2023/09/26 02:12:39;;;;;;;0.00;0.00;;;;;;;13.80;100.00;102137.84;5096146;28;20458;-45
2023/09/26 02:15:07;;;;;;;0.00;0.00;;;;;;;13.82;100.00;102138.53;5092398;28;20035;-45
2023/09/26 02:17:35;;;;;;;0.00;0.00;;;;;;;13.89;100.00;102152.19;5107764;28;20023;-46
2023/09/26 02:20:15;;;;;;;0.00;0.00;;;;;;;13.86;100.00;102146.31;5113210;28;20028;-45
2023/09/26 02:22:42;;;;;;;0.00;0.00;;;;;;;13.80;100.00;102143.25;5113141;28;20523;-42
2023/09/26 02:25:11;;;;;;;0.00;0.00;;;;;;;13.76;100.00;102130.25;5109776;28;20043;-44
2023/09/26 02:27:37;;;;;;;0.00;0.00;;;;;;;13.81;100.00;102134.13;5097559;28;20043;-43
2023/09/26 02:30:04;;;;;;;0.00;0.00;;;;;;;13.77;100.00;102137.31;5108834;28;20024;-41
2023/09/26 02:32:31;;;;;;;0.00;0.00;;;;;;;13.74;100.00;102137.69;5092458;28;20025;-42
2023/09/26 02:34:56;;;;;;;0.00;0.00;;;;;;;13.75;100.00;102134.81;5110225;28;20286;-41
2023/09/26 02:37:22;;;;;;;0.00;0.00;;;;;;;13.75;100.00;102134.81;5112754;28;20043;-41
2023/09/26 02:39:47;;;;;;;0.00;0.00;;;;;;;13.72;100.00;102135.16;5112050;28;20051;-45
2023/09/26 02:42:13;;;;;;;0.00;0.00;;;;;;;13.66;100.00;102134.97;5111987;28;20137;-45
2023/09/26 02:44:39;;;;;;;0.00;0.00;;;;;;;13.77;100.00;102129.22;5111361;28;20028;-45
2023/09/26 02:47:04;;;;;;;0.00;0.00;;;;;;;13.77;100.00;102131.91;5112986;27;20039;-45
2023/09/26 02:49:30;;;;;;;0.00;0.00;;;;;;;13.75;100.00;102129.41;5109620;28;20024;-45
2023/09/26 02:51:55;;;;;;;0.00;0.00;;;;;;;13.71;100.00;102138.88;5110189;28;20397;-42
2023/09/26 02:54:20;;;;;;;0.00;0.00;;;;;;;13.60;100.00;102131.09;5112215;28;20382;-44
2023/09/26 02:56:46;;;;;;;0.00;0.00;;;;;;;13.59;100.00;102134.84;5104128;28;20085;-43
2023/09/26 02:59:11;;;;;;;0.00;0.00;;;;;;;13.59;100.00;102127.56;5105256;28;20122;-43
2023/09/26 03:01:36;;;;;;;0.00;0.00;;;;;;;13.58;100.00;102127.72;5112000;28;20100;-45
2023/09/26 03:04:02;;;;;;;0.00;0.00;;;;;;;13.60;100.00;102120.28;5099797;28;20103;-46
2023/09/26 03:06:27;;;;;;;0.00;0.00;;;;;;;13.61;100.00;102119.25;5101576;27;20023;-46
2023/09/26 03:08:52;;;;;;;0.00;0.00;;;;;;;13.55;100.00;102122.66;5114624;28;20424;-42
2023/09/26 03:11:18;;;;;;;0.00;0.00;;;;;;;13.55;100.00;102111.84;5109453;28;20039;-43
2023/09/26 03:13:43;;;;;;;0.00;0.00;;;;;;;13.56;100.00;102105.41;5093231;28;20027;-42
2023/09/26 03:16:13;;;;;;;0.00;0.00;;;;;;;13.55;100.00;102103.72;5103621;28;20425;-43
2023/09/26 03:18:38;;;;;;;0.00;0.00;;;;;;;13.60;100.00;102095.94;5094635;28;20028;-44
2023/09/26 03:21:05;;;;;;;0.00;0.00;;;;;;;13.54;100.00;102093.94;5092002;28;20031;-42
2023/09/26 03:23:31;;;;;;;0.00;0.00;;;;;;;13.52;100.00;102096.78;5103258;28;20022;-44
2023/09/26 03:25:56;;;;;;;0.00;0.00;;;;;;;13.50;100.00;102097.97;5090459;28;20031;-43
2023/09/26 03:28:21;;;;;;;0.00;0.00;;;;;;;13.46;100.00;102107.47;5097643;28;20031;-45
2023/09/26 03:30:47;;;;;;;0.00;0.00;;;;;;;13.49;100.00;102099.00;5111476;28;20028;-41
2023/09/26 03:33:12;;;;;;;0.00;0.00;;;;;;;13.48;100.00;102095.47;5102799;28;20024;-45
2023/09/26 03:35:37;;;;;;;0.00;0.00;;;;;;;13.60;100.00;102094.06;5094239;28;20153;-46
2023/09/26 03:38:03;;;;;;;0.00;0.00;;;;;;;13.64;100.00;102094.59;5111486;27;20470;-45
2023/09/26 03:40:28;;;;;;;0.00;0.00;;;;;;;13.68;100.00;102095.91;5110658;28;20111;-44
2023/09/26 03:42:54;;;;;;;0.00;0.00;;;;;;;13.73;100.00;102090.84;5093625;28;20024;-44
2023/09/26 03:45:21;;;;;;;0.00;0.00;;;;;;;13.75;100.00;102086.09;5091171;28;20486;-44
2023/09/26 03:47:46;;;;;;;0.00;0.00;;;;;;;13.74;100.00;102083.56;5091052;28;20032;-45
2023/09/26 03:50:11;;;;;;;0.00;0.00;;;;;;;13.70;100.00;102079.53;5094843;28;20043;-45
2023/09/26 03:52:37;;;;;;;0.00;0.00;;;;;;;13.68;100.00;102085.09;5107543;28;20027;-46
2023/09/26 03:55:02;;;;;;;0.00;0.00;;;;;;;13.65;100.00;102081.91;5106048;28;20077;-43
2023/09/26 03:57:31;;;;;;;0.00;0.00;;;;;;;13.56;100.00;102070.22;5096330;28;20035;-44
2023/09/26 03:59:57;;;;;;;0.00;0.00;;;;;;;13.44;100.00;102066.22;5097708;28;20087;-45
2023/09/26 04:02:22;;;;;;;0.00;0.00;;;;;;;13.49;100.00;102061.13;5090965;28;20032;-43
2023/09/26 04:04:48;;;;;;;0.00;0.00;;;;;;;13.51;100.00;102070.78;5091758;28;20057;-44
2023/09/26 04:07:13;;;;;;;0.00;0.00;;;;;;;13.49;100.00;102063.84;5105125;28;20110;-48
2023/09/26 04:09:39;;;;;;;0.00;0.00;;;;;;;13.48;100.00;102063.00;5110634;28;20401;-43
2023/09/26 04:12:04;;;;;;;0.00;0.00;;;;;;;13.48;100.00;102068.41;5111533;28;20066;-46
2023/09/26 04:14:30;;;;;;;0.00;0.00;;;;;;;13.34;100.00;102069.94;5109007;28;20077;-43
2023/09/26 04:16:56;;;;;;;0.00;0.00;;;;;;;13.32;100.00;102069.28;5094113;28;20110;-45
2023/09/26 04:19:22;;;;;;;0.00;0.00;;;;;;;13.31;100.00;102070.28;5091322;28;20509;-44
2023/09/26 04:21:47;;;;;;;0.00;0.00;;;;;;;13.39;100.00;102070.25;5091258;28;20073;-42
2023/09/26 04:24:12;;;;;;;0.00;0.00;;;;;;;13.32;100.00;102068.41;5098228;28;20039;-43
2023/09/26 04:26:38;;;;;;;0.00;0.00;;;;;;;13.31;100.00;102064.88;5093840;28;20032;-45
2023/09/26 04:29:05;;;;;;;0.00;0.00;;;;;;;13.32;100.00;102063.00;5103812;28;20452;-42
2023/09/26 04:31:31;;;;;;;0.00;0.00;;;;;;;13.31;100.00;102064.88;5090469;28;20039;-45
2023/09/26 04:33:56;;;;;;;0.00;0.00;;;;;;;13.30;100.00;102060.47;5093154;28;20031;-46
2023/09/26 04:36:22;;;;;;;0.00;0.00;;;;;;;13.33;100.00;102054.72;5098023;28;20036;-45
2023/09/26 04:38:48;;;;;;;0.00;0.00;;;;;;;13.36;100.00;102056.25;5095155;28;20024;-45
2023/09/26 04:41:13;;;;;;;0.00;0.00;;;;;;;13.38;100.00;102062.34;5103016;28;20489;-46
2023/09/26 04:43:39;;;;;;;0.00;0.00;;;;;;;13.36;100.00;102054.38;5088398;28;20629;-46
2023/09/26 04:46:12;;;;;;;0.00;0.00;;;;;;;13.36;100.00;102054.38;5093370;28;20024;-44
2023/09/26 04:48:39;;;;;;;0.00;0.00;;;;;;;13.36;100.00;102057.09;5109023;28;20109;-45
2023/09/26 04:51:12;;;;;;;0.00;0.00;;;;;;;13.41;100.00;102056.59;5100888;28;20019;-46
2023/09/26 04:53:38;;;;;;;0.00;0.00;;;;;;;13.41;100.00;102055.75;5090382;28;20062;-45
2023/09/26 04:56:04;;;;;;;0.00;0.00;;;;;;;13.44;100.00;102058.94;5094933;28;20032;-45
2023/09/26 04:58:30;;;;;;;0.00;0.00;;;;;;;13.45;100.00;102065.19;5099937;28;20111;-43
2023/09/26 05:00:56;;;;;;;0.00;0.00;;;;;;;13.45;100.00;102052.50;5092724;28;20436;-44
2023/09/26 05:03:22;;;;;;;0.00;0.00;;;;;;;13.48;100.00;102051.31;5092533;28;20116;-42
2023/09/26 05:05:47;;;;;;;0.00;0.00;;;;;;;13.47;100.00;102045.06;5105379;28;20031;-42
2023/09/26 05:08:13;;;;;;;0.00;0.00;;;;;;;13.50;100.00;102038.47;5094461;28;20067;-43
2023/09/26 05:10:38;;;;;;;0.00;0.00;;;;;;;13.53;100.00;102038.13;5114112;28;20031;-43
2023/09/26 05:13:06;;;;;;;0.00;0.00;;;;;;;13.60;100.00;102041.84;5096136;28;20020;-44
2023/09/26 05:15:33;;;;;;;0.00;0.00;;;;;;;13.55;100.00;102041.50;5096291;28;20027;-45
2023/09/26 05:17:58;;;;;;;0.00;0.00;;;;;;;13.50;100.00;102033.06;5100762;28;20043;-42
2023/09/26 05:20:24;;;;;;;0.00;0.00;;;;;;;13.51;100.00;102046.44;5094779;28;20047;-41
2023/09/26 05:22:50;;;;;;;0.00;0.00;;;;;;;13.48;100.00;102051.31;5113568;28;20020;-45
2023/09/26 05:25:15;;;;;;;0.00;0.00;;;;;;;13.44;100.00;102044.59;5114756;28;20077;-45
2023/09/26 05:27:42;;;;;;;0.00;0.00;;;;;;;13.44;100.00;102056.22;5097532;28;20035;-44
2023/09/26 05:30:11;;;;;;;0.00;0.00;;;;;;;13.45;100.00;102057.06;5094037;28;20032;-42
2023/09/26 05:32:38;;;;;;;0.00;0.00;;;;;;;13.43;100.00;102056.41;5114442;28;20042;-45
2023/09/26 05:35:06;;;;;;;0.00;0.00;;;;;;;13.43;100.00;102054.56;5114346;28;20020;-44
2023/09/26 05:37:31;;;;;;;0.00;0.00;;;;;;;13.42;100.00;102054.72;5100107;28;20221;-46
2023/09/26 05:39:56;;;;;;;0.00;0.00;;;;;;;13.42;100.00;102055.56;5092031;28;20043;-46
2023/09/26 05:42:22;;;;;;;0.00;0.00;;;;;;;13.43;100.00;102053.69;5091756;28;20024;-42
2023/09/26 05:44:47;;;;;;;0.00;0.00;;;;;;;13.42;100.00;102054.72;5093249;28;20015;-43
2023/09/26 05:47:12;;;;;;;0.00;0.00;;;;;;;13.42;100.00;102060.97;5093366;28;20047;-44
2023/09/26 05:49:38;;;;;;;0.00;0.00;;;;;;;13.46;100.00;102050.66;5093212;28;20020;-43
2023/09/26 05:52:03;;;;;;;0.00;0.00;;;;;;;13.52;100.00;102063.50;5092369;28;20057;-42
2023/09/26 05:54:30;;;;;;;0.00;0.00;;;;;;;13.50;100.00;102060.09;5092746;28;20101;-46
2023/09/26 05:56:56;;;;;;;0.00;0.00;;;;;;;13.50;100.00;102055.53;5103576;28;20475;-43
2023/09/26 05:59:21;;;;;;;0.00;0.00;;;;;;;13.53;100.00;102062.47;5103450;28;20026;-45
2023/09/26 06:01:47;;;;;;;0.00;0.00;;;;;;;13.53;100.00;102057.06;5092581;28;20486;-46
2023/09/26 06:04:12;;;;;;;0.00;0.00;;;;;;;13.63;100.00;102056.88;5089929;28;20043;-45
2023/09/26 06:06:37;;;;;;;0.00;0.00;;;;;;;13.66;100.00;102046.53;5098863;28;20682;-47
2023/09/26 06:09:03;;;;;;;0.00;0.00;;;;;;;13.77;100.00;102051.63;5105896;28;20032;-44
2023/09/26 06:11:29;;;;;;;0.00;0.00;;;;;;;13.81;100.00;102043.97;5096496;28;20028;-43
2023/09/26 06:13:54;;;;;;;0.00;0.00;;;;;;;13.85;100.00;102042.63;5093126;28;20032;-41
2023/09/26 06:16:20;;;;;;;0.00;0.00;;;;;;;13.91;100.00;102035.66;5092519;28;20557;-44
2023/09/26 06:18:47;;;;;;;0.00;0.00;;;;;;;13.95;100.00;102032.41;5092609;28;20043;-43
2023/09/26 06:21:14;;;;;;;0.00;0.00;;;;;;;13.97;100.00;102030.38;5092303;28;20107;-46
2023/09/26 06:23:39;;;;;;;0.00;0.00;;;;;;;14.00;100.00;102032.75;5092699;28;20028;-45
2023/09/26 06:26:04;;;;;;;0.00;0.00;;;;;;;14.02;100.00;102032.56;5102001;28;20075;-45
2023/09/26 06:28:30;;;;;;;0.00;0.00;;;;;;;14.06;100.00;102020.38;5112007;28;20060;-48
2023/09/26 06:30:56;;;;;;;0.00;0.00;;;;;;;14.13;100.00;102025.94;5108389;28;20023;-45
2023/09/26 06:33:21;;;;;;;0.00;0.00;;;;;;;14.18;100.00;102027.06;5094657;28;20170;-43
2023/09/26 06:35:46;;;;;;;0.00;0.00;;;;;;;14.27;100.00;102036.88;5094229;28;20046;-43
2023/09/26 06:38:12;;;;;;;0.00;0.00;;;;;;;14.38;100.00;102026.66;5107013;28;20043;-44
2023/09/26 06:40:37;;;;;;;0.00;0.00;;;;;;;14.35;100.00;102021.56;5098626;28;20421;-45
2023/09/26 06:43:03;;;;;;;0.00;0.00;;;;;;;14.46;100.00;102015.78;5095579;28;20078;-47
2023/09/26 06:45:29;;;;;;;0.00;0.00;;;;;;;14.50;100.00;102025.22;5099408;28;20047;-45
2023/09/26 06:47:54;;;;;;;0.00;0.00;;;;;;;14.53;100.00;102015.91;5106615;28;20467;-42
2023/09/26 06:50:21;;;;;;;0.00;0.00;;;;;;;14.60;100.00;102012.31;5113633;28;20072;-45
2023/09/26 06:52:47;;;;;;;0.00;0.00;;;;;;;14.67;100.00;102020.56;5113641;27;20500;-47
2023/09/26 06:55:12;;;;;;;0.00;0.00;;;;;;;14.71;100.00;102028.13;5108139;28;20032;-45
2023/09/26 06:57:38;;;;;;;0.00;0.00;;;;;;;14.71;100.00;102022.72;5093619;28;20043;-44
2023/09/26 07:00:05;;;;;;;0.00;0.00;;;;;;;14.76;100.00;102013.22;5092708;28;20050;-45
2023/09/26 07:02:31;;;;;;;0.00;0.00;;;;;;;14.80;100.00;102017.28;5107002;28;20046;-45
2023/09/26 07:04:56;;;;;;;0.00;0.00;;;;;;;14.82;100.00;102012.47;5113465;28;20035;-47
2023/09/26 07:07:23;;;;;;;0.00;0.00;;;;;;;14.91;100.00;102011.41;5123468;27;20110;-46
2023/09/26 07:09:48;;;;;;;0.00;0.00;;;;;;;15.10;100.00;102010.88;5094496;27;20119;-43
2023/09/26 07:12:14;;;;;;;0.00;0.00;;;;;;;15.41;100.00;102020.78;5113990;28;20588;-45
2023/09/26 07:14:39;;;;;;;0.00;0.00;;;;;;;15.72;100.00;102019.81;5106510;28;20031;-43
2023/09/26 07:17:05;;;;;;;0.00;0.00;;;;;;;16.10;100.00;102022.41;5112890;27;20504;-45
2023/09/26 07:19:31;;;;;;;0.00;0.00;;;;;;;16.74;100.00;102018.91;5111318;28;20031;-43
2023/09/26 07:21:57;;;;;;;0.00;0.00;;;;;;;17.14;100.00;101992.09;5113026;27;20084;-46
2023/09/26 07:24:22;;;;;;;0.00;0.00;;;;;;;16.99;100.00;101974.00;5101538;28;20454;-49
2023/09/26 07:26:48;;;;;;;0.00;0.00;;;;;;;17.13;100.00;101974.13;5099284;28;20123;-44
2023/09/26 07:29:13;;;;;;;0.00;0.00;;;;;;;17.20;100.00;101975.84;5112552;28;20031;-42
2023/09/26 07:31:39;;;;;;;0.00;0.00;;;;;;;17.08;100.00;101967.38;5110896;28;20102;-43
2023/09/26 07:34:04;;;;;;;0.00;0.00;;;;;;;17.07;100.00;101962.97;5112030;28;20027;-43
2023/09/26 07:36:32;;;;;;;0.00;0.00;;;;;;;17.08;100.00;101971.97;5112917;27;20409;-43
2023/09/26 07:38:57;;;;;;;0.00;0.00;;;;;;;17.17;100.00;101978.97;5111436;28;20028;-43
2023/09/26 07:41:22;;;;;;;0.00;0.00;;;;;;;17.28;100.00;101985.75;5110963;28;20038;-44
2023/09/26 07:43:48;;;;;;;0.00;0.00;;;;;;;17.54;100.00;101985.91;5101852;28;20039;-44
2023/09/26 07:46:14;;;;;;;0.00;0.00;;;;;;;17.72;100.00;101971.78;5106053;28;20031;-45
2023/09/26 07:48:40;;;;;;;0.00;0.00;;;;;;;18.34;100.00;101960.91;5109024;28;20028;-45
2023/09/26 07:51:07;;;;;;;0.00;0.00;;;;;;;18.58;100.00;101945.84;5108767;28;20053;-42
2023/09/26 07:53:33;;;;;;;0.00;0.00;;;;;;;18.72;100.00;101943.97;5110631;28;20393;-44
2023/09/26 07:55:58;;;;;;;0.00;0.00;;;;;;;18.55;100.00;101938.94;5106196;28;20024;-43
2023/09/26 07:58:24;;;;;;;0.00;0.00;;;;;;;18.53;100.00;101934.72;5129493;27;20113;-49
2023/09/26 08:00:50;;;;;;;0.00;0.00;;;;;;;18.35;100.00;101951.69;5126817;27;20169;-44
2023/09/26 08:03:16;;;;;;;0.00;0.00;;;;;;;18.19;100.00;101952.91;5109411;28;20028;-43
2023/09/26 08:05:41;;;;;;;0.00;0.00;;;;;;;18.16;100.00;101964.22;5097804;28;20046;-49
2023/09/26 08:08:07;;;;;;;0.00;0.00;;;;;;;18.08;100.00;101956.22;5096732;27;20484;-44
2023/09/26 08:10:36;;;;;;;0.00;0.00;;;;;;;18.06;100.00;101956.44;5100874;28;20381;-47
2023/09/26 08:13:01;;;;;;;0.00;0.00;;;;;;;17.95;100.00;101960.56;5097719;28;20051;-45
2023/09/26 08:15:30;;;;;;;0.00;0.00;;;;;;;17.77;100.00;101962.97;5097254;28;20050;-45
2023/09/26 08:17:56;;;;;;;0.00;0.00;;;;;;;17.88;100.00;101961.63;5107835;27;20114;-46
2023/09/26 08:20:21;;;;;;;0.00;0.00;;;;;;;17.80;100.00;101965.34;5126039;27;20055;-45
2023/09/26 08:22:49;;;;;;;;;;;;;;;17.82;100.00;101963.25;5110525;27;20523;-45
2023/09/26 08:25:14;;;;;;;0.00;0.00;;;;;;;17.86;100.00;101974.59;5100143;28;19933;-43
2023/09/26 08:27:40;;;;;;;0.00;0.00;;;;;;;18.39;100.00;101956.53;5104815;28;20047;-43
2023/09/26 08:30:07;;;;;;;0.00;0.00;;;;;;;19.47;100.00;101945.38;5100697;28;20036;-45
2023/09/26 08:32:32;;;;;;;0.00;0.00;;;;;;;19.85;100.00;101935.63;5098294;28;20028;-45
2023/09/26 08:34:58;;;;;;;0.00;0.00;;;;;;;20.09;100.00;101932.16;5098895;28;20519;-44
2023/09/26 08:37:23;;;;;;;0.00;0.00;;;;;;;20.01;100.00;101939.75;5104047;28;20527;-42
2023/09/26 08:39:50;;;;;;;0.00;0.00;;;;;;;19.80;100.00;101933.56;5105992;28;20409;-44
2023/09/26 08:42:25;;;;;;;0.00;0.00;;;;;;;20.06;100.00;101937.19;5100211;28;20036;-43
2023/09/26 08:44:50;;;;;;;0.00;0.00;;;;;;;19.93;100.00;101929.91;5102725;28;20028;-46
2023/09/26 08:47:16;;;;;;;0.00;0.00;;;;;;;19.85;100.00;101935.63;5103851;27;20100;-45
2023/09/26 08:49:43;;;;;;;0.00;0.00;;;;;;;19.80;100.00;101939.03;5109239;28;20028;-45
2023/09/26 08:52:08;;;;;;;0.00;0.00;;;;;;;19.69;100.00;101945.13;5100401;27;20059;-48
2023/09/26 08:54:33;;;;;;;0.00;0.00;;;;;;;19.76;100.00;101934.19;5114564;28;20432;-44
2023/09/26 08:56:59;;;;;;;0.00;0.00;;;;;;;19.76;100.00;101931.47;5103979;27;20474;-43
2023/09/26 08:59:26;;;;;;;0.00;0.00;;;;;;;19.76;100.00;101931.47;5103323;28;20519;-43
2023/09/26 09:01:51;;;;;;;0.00;0.00;;;;;;;20.23;100.00;101921.97;5108563;28;20035;-42
2023/09/26 09:04:21;;;;;;;0.00;0.00;;;;;;;20.87;100.00;101921.94;5102713;28;20019;-43
2023/09/26 09:06:46;;;;;;;0.00;0.00;;;;;;;21.04;100.00;101923.03;5097878;27;20056;-46
2023/09/26 09:09:13;;;;;;;0.00;0.00;;;;;;;21.00;100.00;101910.84;5105257;28;20470;-44
2023/09/26 09:11:38;;;;;;;0.00;0.00;;;;;;;20.76;100.00;101905.19;5108152;28;20027;-44
2023/09/26 09:14:06;;;;;;;0.00;0.00;;;;;;;20.66;100.00;101914.97;5114119;28;20088;-43
2023/09/26 09:16:31;;;;;;;0.00;0.00;;;;;;;20.64;100.00;101917.06;5105670;28;20069;-44
2023/09/26 09:18:58;;;;;;;0.00;0.00;;;;;;;20.30;100.00;101922.78;5098414;28;20534;-45
2023/09/26 09:21:30;;;;;;;0.00;0.00;;;;;;;20.15;100.00;101920.34;5095119;28;20036;-45
2023/09/26 09:23:57;;;;;;;0.00;0.00;;;;;;;19.97;100.00;101922.94;5106273;28;20028;-42
2023/09/26 09:26:23;;;;;;;0.00;0.00;;;;;;;19.88;100.00;101925.13;5109391;27;20101;-44
2023/09/26 09:28:51;;;;;;;0.00;0.00;;;;;;;19.94;100.00;101923.41;5112428;28;20069;-46
2023/09/26 09:31:17;;;;;;;0.00;0.00;;;;;;;19.89;100.00;101925.94;5111837;28;20039;-44
2023/09/26 09:33:46;;;;;;;0.00;0.00;;;;;;;19.74;100.00;101916.13;5099967;28;20020;-43
2023/09/26 09:36:13;;;;;;;0.00;0.00;;;;;;;19.72;100.00;101911.91;5107404;27;20442;-48
2023/09/26 09:38:39;;;;;;;0.00;0.00;;;;;;;19.87;100.00;101917.94;5093553;28;20073;-45
2023/09/26 09:41:05;;;;;;;0.00;0.00;;;;;;;20.06;100.00;101918.06;5100896;27;20478;-43
2023/09/26 09:43:30;;;;;;;0.00;0.00;;;;;;;20.03;100.00;101911.16;5092650;28;20035;-44
2023/09/26 09:45:57;;;;;;;0.00;0.00;;;;;;;20.04;100.00;101912.84;5097364;27;20462;-45
2023/09/26 09:48:24;;;;;;;0.00;0.00;;;;;;;20.30;100.00;101898.16;5097707;28;20064;-46
2023/09/26 09:50:53;;;;;;;0.00;0.00;;;;;;;20.31;100.00;101905.28;5099198;28;20165;-41
2023/09/26 09:53:20;;;;;;;0.00;0.00;;;;;;;20.37;100.00;101901.66;5094720;28;20466;-44
2023/09/26 09:55:48;;;;;;;0.00;0.00;;;;;;;20.39;100.00;101905.03;5095609;28;20423;-45
2023/09/26 09:58:15;;;;;;;0.00;0.00;;;;;;;20.63;100.00;101909.94;5103303;28;20038;-47
2023/09/26 10:00:41;;;;;;;0.00;0.00;;;;;;;20.71;100.00;101907.75;5106467;28;20096;-44
2023/09/26 10:03:06;;;;;;;0.00;0.00;;;;;;;20.67;100.00;101901.06;5079151;28;20115;-41
2023/09/26 10:05:34;;;;;;;0.00;0.00;;;;;;;20.58;100.00;101896.91;5101211;27;20023;-44
2023/09/26 10:08:01;;;;;;;0.00;0.00;;;;;;;20.67;100.00;101890.13;5099331;27;20031;-47
2023/09/26 10:10:28;;;;;;;0.00;0.00;;;;;;;20.59;100.00;101891.25;5098373;28;20024;-45
2023/09/26 10:12:53;;;;;;;0.00;0.00;;;;;;;20.65;100.00;101886.78;5092666;28;20024;-44
2023/09/26 10:15:19;;;;;;;0.00;0.00;;;;;;;20.69;100.00;101904.41;5094346;28;20047;-45
2023/09/26 10:17:51;;;;;;;0.00;0.00;;;;;;;20.69;100.00;101887.97;5094398;28;20075;-44
2023/09/26 10:20:16;;;;;;;0.00;0.00;;;;;;;20.92;100.00;101889.25;5097526;28;20551;-42
2023/09/26 10:22:43;;;;;;;0.00;0.00;;;;;;;20.97;100.00;101884.78;5106714;28;20020;-45
2023/09/26 10:25:19;;;;;;;0.00;0.00;;;;;;;21.09;100.00;101876.69;5092243;28;20498;-45
2023/09/26 10:27:50;;;;;;;0.00;0.00;;;;;;;21.15;100.00;101875.75;5111384;28;20026;-41
2023/09/26 10:30:18;;;;;;;0.00;0.00;;;;;;;21.03;100.00;101872.91;5110613;28;20032;-46
2023/09/26 10:32:44;;;;;;;0.00;0.00;;;;;;;21.01;100.00;101874.22;5112682;28;20068;-45
2023/09/26 10:35:13;;;;;;;0.00;0.00;;;;;;;21.07;100.00;101877.97;5112525;28;20069;-42
2023/09/26 10:37:38;;;;;;;0.00;0.00;;;;;;;20.95;100.00;101880.59;5112253;28;20061;-45
2023/09/26 10:40:04;;;;;;;0.00;0.00;;;;;;;20.96;100.00;101871.34;5112311;28;20023;-42
2023/09/26 10:42:29;;;;;;;0.00;0.00;;;;;;;20.94;100.00;101862.50;5112569;28;20562;-44
2023/09/26 10:44:55;;;;;;;0.00;0.00;;;;;;;21.21;100.00;101865.78;5112378;28;20520;-42
2023/09/26 10:47:22;;;;;;;0.00;0.00;;;;;;;21.23;100.00;101869.97;5112454;28;20020;-44
2023/09/26 10:49:47;;;;;;;0.00;0.00;;;;;;;21.48;100.00;101861.72;5112564;28;20026;-43
2023/09/26 10:52:13;;;;;;;0.00;0.00;;;;;;;21.54;100.00;101851.75;5112387;28;20027;-45
2023/09/26 10:54:41;;;;;;;0.00;0.00;;;;;;;21.68;100.00;101850.47;5111549;28;20476;-44
2023/09/26 10:57:07;;;;;;;0.00;0.00;;;;;;;21.74;100.00;101840.50;5112296;28;20049;-44
2023/09/26 10:59:33;;;;;;;0.00;0.00;;;;;;;21.90;100.00;101839.00;5111869;28;20090;-44
2023/09/26 11:02:00;;;;;;;0.00;0.00;;;;;;;21.87;100.00;101839.47;5112407;28;20506;-42
2023/09/26 11:04:31;;;;;;;0.00;0.00;;;;;;;21.81;100.00;101834.94;5093668;28;20085;-42
2023/09/26 11:06:57;;;;;;;0.00;0.00;;;;;;;21.71;100.00;101835.50;5094017;28;20027;-42
2023/09/26 11:09:24;;;;;;;0.00;0.00;;;;;;;21.75;100.00;101838.59;5096079;28;20385;-44
2023/09/26 11:11:49;;;;;;;0.00;0.00;;;;;;;21.75;100.00;101853.16;5101407;28;20023;-42